createdAt,value
2023-08-08T00:00:17.394Z,61.224941
2023-08-08T00:05:17.437Z,61.224941
2023-08-08T00:10:17.435Z,61.609962
2023-08-08T00:15:17.529Z,61.321040
2023-08-08T00:20:17.708Z,61.701048
2023-08-08T00:25:17.520Z,61.411638
2023-08-08T00:30:17.457Z,61.593498
2023-08-08T00:35:17.388Z,61.867217
2023-08-08T00:40:17.482Z,61.770428
2023-08-08T00:45:15.526Z,61.673639
2023-08-08T00:50:15.585Z,61.576849
2023-08-08T00:55:15.659Z,61.480059
2023-08-08T01:00:15.543Z,61.942545
2023-08-08T01:05:15.525Z,61.845600
2023-08-08T01:10:15.608Z,62.012859
2023-08-08T01:15:15.511Z,61.915758
2023-08-08T01:20:16.084Z,62.078270
2023-08-08T01:25:15.644Z,62.236291
2023-08-08T01:30:15.560Z,62.780132
2023-08-08T01:35:15.768Z,62.877684
2023-08-08T01:40:15.613Z,63.125457
2023-08-08T01:45:15.742Z,63.565002
2023-08-08T01:50:15.680Z,63.565002
2023-08-08T01:55:15.808Z,64.001291
2023-08-08T02:00:15.779Z,64.434397
2023-08-08T02:05:15.571Z,64.434397
2023-08-08T02:10:15.768Z,64.864394
2023-08-08T02:15:15.846Z,65.060935
2023-08-08T02:20:15.790Z,65.159205
2023-08-08T02:25:15.915Z,65.586581
2023-08-08T02:30:15.693Z,65.684990
2023-08-08T02:35:15.844Z,65.912430
2023-08-08T02:40:16.938Z,66.010978
2023-08-08T02:45:15.753Z,66.333777
2023-08-08T02:50:15.752Z,66.136404
2023-08-08T02:55:15.822Z,65.939030
2023-08-08T03:00:15.809Z,65.642967
2023-08-08T03:05:15.849Z,65.764038
2023-08-08T03:10:15.833Z,65.566387
2023-08-08T03:15:15.918Z,65.782557
2023-08-08T03:20:16.001Z,65.683596
2023-08-08T03:25:15.991Z,65.881518
2023-08-08T03:30:15.989Z,65.881518
2023-08-08T03:35:15.868Z,65.980478
2023-08-08T03:40:15.882Z,66.292760
2023-08-08T03:45:15.931Z,66.193665
2023-08-08T03:50:15.917Z,66.094571
2023-08-08T03:55:15.874Z,65.995476
2023-08-08T04:00:16.914Z,65.995476
2023-08-08T04:05:17.086Z,65.797286
2023-08-08T04:10:17.069Z,65.797286
2023-08-08T04:15:16.991Z,65.698191
2023-08-08T04:20:17.118Z,65.797286
2023-08-08T04:25:16.965Z,65.698191
2023-08-08T04:45:17.310Z,65.510610
2023-08-08T04:50:17.054Z,65.411381
2023-08-08T04:55:17.101Z,65.510610
2023-08-08T05:00:17.041Z,65.510610
2023-08-08T05:05:17.040Z,65.609839
2023-08-08T05:10:17.138Z,65.609839
2023-08-08T05:15:17.116Z,65.609839
2023-08-08T05:20:17.193Z,65.510610
2023-08-08T05:25:17.034Z,65.411381
2023-08-08T05:30:17.045Z,65.510610
2023-08-08T05:35:17.170Z,65.510610
2023-08-08T05:40:17.114Z,65.510610
2023-08-08T05:45:17.164Z,65.815656
2023-08-08T05:50:17.151Z,65.815656
2023-08-08T05:55:17.134Z,66.014376
2023-08-08T06:00:17.155Z,66.113735
2023-08-08T06:05:17.073Z,66.113735
2023-08-08T06:10:17.247Z,66.113735
2023-08-08T06:15:17.244Z,66.213095
2023-08-08T06:20:17.492Z,66.213095
2023-08-08T06:25:17.266Z,66.312455
2023-08-08T06:30:17.371Z,66.411814
2023-08-08T06:35:17.293Z,66.511173
2023-08-08T06:40:17.294Z,66.610532
2023-08-08T06:45:17.236Z,66.709891
2023-08-08T06:50:18.406Z,66.809250
2023-08-08T06:55:17.617Z,66.403663
2023-08-08T07:00:17.371Z,66.304435
2023-08-08T07:05:17.489Z,66.403663
2023-08-08T07:10:17.356Z,66.701344
2023-08-08T07:15:17.434Z,66.701344
2023-08-08T07:20:17.409Z,66.602117
2023-08-08T07:25:17.341Z,66.899797
2023-08-08T07:30:17.427Z,66.999024
2023-08-08T07:35:17.438Z,66.999024
2023-08-08T07:40:17.967Z,67.197476
2023-08-08T07:45:17.441Z,67.395927
2023-08-08T07:50:17.455Z,67.395927
2023-08-08T07:55:17.564Z,67.296702
2023-08-08T08:00:15.593Z,67.197476
2023-08-08T08:05:15.566Z,67.296702
2023-08-08T08:10:15.500Z,67.197476
2023-08-08T08:15:15.467Z,67.197476
2023-08-08T08:20:15.565Z,67.395927
2023-08-08T08:25:15.473Z,67.296702
2023-08-08T08:30:16.978Z,67.296702
2023-08-08T08:35:15.496Z,67.395927
2023-08-08T08:40:15.843Z,67.902187
2023-08-08T08:45:15.604Z,67.495153
2023-08-08T08:50:15.611Z,67.495153
2023-08-08T08:55:15.576Z,67.902187
2023-08-08T09:00:17.605Z,67.594378
2023-08-08T09:05:15.693Z,67.902187
2023-08-08T09:10:15.621Z,67.902187
2023-08-08T09:15:15.717Z,68.100901
2023-08-08T09:20:15.676Z,68.100901
2023-08-08T09:25:15.631Z,68.001544
2023-08-08T09:30:15.784Z,68.001544
2023-08-08T09:35:15.621Z,67.902187
2023-08-08T09:40:15.874Z,67.594378
2023-08-08T09:45:15.697Z,67.802830
2023-08-08T09:50:15.794Z,67.395927
2023-08-08T09:55:15.792Z,67.802830
2023-08-08T10:00:15.709Z,67.495153
2023-08-08T10:05:15.945Z,67.802830
2023-08-08T10:10:16.023Z,67.902187
2023-08-08T10:15:15.770Z,67.902187
2023-08-08T10:20:15.916Z,67.902187
2023-08-08T10:25:15.864Z,67.495153
2023-08-08T10:30:15.771Z,67.395927
2023-08-08T10:35:15.828Z,67.395927
2023-08-08T10:40:15.830Z,67.703472
2023-08-08T10:45:16.014Z,67.703472
2023-08-08T10:50:16.143Z,67.802830
2023-08-08T10:55:15.839Z,67.902187
2023-08-08T11:00:15.913Z,68.001544
2023-08-08T11:05:16.020Z,68.100901
2023-08-08T11:10:15.863Z,68.001544
2023-08-08T11:15:15.916Z,68.100901
2023-08-08T11:20:15.928Z,68.001544
2023-08-08T11:25:15.882Z,68.001544
2023-08-08T11:30:15.996Z,67.902187
2023-08-08T11:35:16.085Z,67.902187
2023-08-08T11:40:16.078Z,67.902187
2023-08-08T11:45:16.094Z,67.802830
2023-08-08T11:50:15.976Z,67.703472
2023-08-08T11:55:16.123Z,67.504757
2023-08-08T12:00:16.019Z,67.504757
2023-08-08T12:05:15.934Z,67.703472
2023-08-08T12:10:17.613Z,67.703472
2023-08-08T12:15:16.999Z,67.703472
2023-08-08T12:20:16.024Z,67.902187
2023-08-08T12:25:16.349Z,68.505638
2023-08-08T12:30:16.064Z,68.704613
2023-08-08T12:35:16.202Z,68.804100
2023-08-08T12:40:16.067Z,68.605126
2023-08-08T12:45:16.289Z,68.704613
2023-08-08T12:50:16.122Z,68.804100
2023-08-08T12:55:16.188Z,68.704613
2023-08-08T13:00:16.201Z,68.505638
2023-08-08T13:05:16.200Z,68.306663
2023-08-08T13:10:16.209Z,68.306663
2023-08-08T13:15:16.274Z,68.505638
2023-08-08T13:25:17.360Z,68.605126
2023-08-08T13:30:16.189Z,68.804100
2023-08-08T13:35:16.692Z,68.903588
2023-08-08T13:40:16.249Z,68.804100
2023-08-08T13:45:16.369Z,68.804100
2023-08-08T13:50:16.425Z,68.704613
2023-08-08T13:55:16.380Z,68.704613
2023-08-08T14:00:16.376Z,68.505638
2023-08-08T14:05:16.416Z,69.007484
2023-08-08T14:10:16.372Z,68.704613
2023-08-08T14:15:16.329Z,68.704613
2023-08-08T14:20:16.609Z,68.704613
2023-08-08T14:25:16.431Z,68.704613
2023-08-08T14:30:16.382Z,68.804100
2023-08-08T14:35:16.399Z,68.605126
2023-08-08T14:40:16.437Z,68.505638
2023-08-08T14:45:16.434Z,68.605126
2023-08-08T14:50:16.519Z,68.704613
2023-08-08T14:55:16.444Z,68.804100
2023-08-08T15:00:16.436Z,68.903588
2023-08-08T15:05:16.478Z,68.804100
2023-08-08T15:10:16.429Z,68.704613
2023-08-08T15:15:16.470Z,68.505638
2023-08-08T15:20:16.544Z,68.406151
2023-08-08T15:25:16.597Z,68.406151
2023-08-08T15:30:16.539Z,68.306663
2023-08-08T15:35:16.580Z,68.107687
2023-08-08T15:40:16.480Z,68.207175
2023-08-08T15:45:16.531Z,68.509398
2023-08-08T15:50:16.832Z,68.008199
2023-08-08T15:55:16.869Z,67.709734
2023-08-08T16:00:16.533Z,67.411268
2023-08-08T16:05:16.438Z,67.712455
2023-08-08T16:10:16.568Z,67.812073
2023-08-08T16:15:16.655Z,67.911691
2023-08-08T16:20:19.165Z,68.310162
2023-08-08T16:25:16.628Z,69.007484
2023-08-08T16:30:16.621Z,69.505569
2023-08-08T16:35:16.614Z,69.605185
2023-08-08T16:40:16.636Z,69.704802
2023-08-08T16:45:16.632Z,69.605185
2023-08-08T16:50:16.884Z,69.505569
2023-08-08T16:55:16.716Z,69.306335
2023-08-08T17:00:16.726Z,69.306335
2023-08-08T17:05:16.745Z,69.107101
2023-08-08T17:10:16.705Z,69.107101
2023-08-08T17:15:16.786Z,69.605185
2023-08-08T17:20:16.754Z,69.704802
2023-08-08T17:25:16.746Z,70.504584
2023-08-08T17:30:16.790Z,71.003309
2023-08-08T17:35:16.795Z,71.302543
2023-08-08T17:40:16.854Z,70.999810
2023-08-08T17:45:16.949Z,70.900195
2023-08-08T17:50:16.834Z,71.298656
2023-08-08T17:55:16.942Z,71.092278
2023-08-08T18:00:17.206Z,71.081546
2023-08-08T18:05:16.712Z,71.265602
2023-08-08T18:10:16.938Z,71.027170
2023-08-08T18:15:16.850Z,70.971724
2023-08-08T18:20:16.938Z,71.036549
2023-08-08T18:25:16.925Z,70.465239
2023-08-08T18:30:17.185Z,70.563489
2023-08-08T18:35:16.959Z,70.223363
2023-08-08T18:40:16.966Z,70.419575
2023-08-08T18:45:16.936Z,70.467527
2023-08-08T18:50:17.009Z,70.510750
2023-08-08T18:55:17.085Z,70.315126
2023-08-08T19:00:17.346Z,69.572503
2023-08-08T19:05:17.037Z,69.977726
2023-08-08T19:10:16.966Z,69.781803
2023-08-08T19:15:17.291Z,69.434799
2023-08-08T19:20:17.019Z,69.336982
2023-08-08T19:25:18.026Z,69.585877
2023-08-08T19:30:17.186Z,70.419575
2023-08-08T19:35:17.069Z,70.075687
2023-08-08T19:40:17.137Z,70.467527
2023-08-08T19:45:17.975Z,70.158493
2023-08-08T19:50:17.202Z,69.900022
2023-08-08T19:55:17.159Z,70.158493
2023-08-08T20:00:17.280Z,70.706371
2023-08-08T20:05:17.134Z,70.451481
2023-08-08T20:10:17.330Z,70.158493
2023-08-08T20:15:17.296Z,69.865500
2023-08-08T20:20:17.167Z,69.923874
2023-08-08T20:25:17.306Z,69.728245
2023-08-08T20:30:17.262Z,69.630430
2023-08-08T20:35:17.243Z,69.487914
2023-08-08T20:40:17.361Z,69.536609
2023-08-08T20:45:17.222Z,69.634718
2023-08-08T20:50:17.210Z,70.268738
2023-08-08T20:55:17.408Z,71.392168
2023-08-08T21:00:17.294Z,71.694914
2023-08-08T21:05:17.464Z,71.936868
2023-08-08T21:10:17.285Z,72.173474
2023-08-08T21:15:17.329Z,71.947699
2023-08-08T21:20:17.378Z,71.584578
2023-08-08T21:25:17.288Z,72.337707
2023-08-08T21:30:17.546Z,72.532708
2023-08-08T21:35:17.442Z,72.532708
2023-08-08T21:40:17.438Z,72.795231
2023-08-08T21:45:18.128Z,72.306973
2023-08-08T21:50:17.401Z,72.271278
2023-08-08T21:55:17.532Z,72.916374
2023-08-08T22:00:17.599Z,71.752692
2023-08-08T22:05:17.253Z,72.502277
2023-08-08T22:10:17.501Z,72.599929
2023-08-08T22:15:17.447Z,72.502277
2023-08-08T22:20:17.442Z,72.404625
2023-08-08T22:25:15.494Z,71.916358
2023-08-08T22:30:15.623Z,71.330420
2023-08-08T22:35:15.734Z,71.195417
2023-08-08T22:40:15.636Z,71.349143
2023-08-08T22:45:15.576Z,71.349143
2023-08-08T22:50:15.577Z,71.153231
2023-08-08T22:55:15.525Z,71.891114
2023-08-08T23:00:15.490Z,71.838915
2023-08-08T23:05:15.523Z,70.646805
2023-08-08T23:10:15.640Z,70.804181
2023-08-08T23:15:15.546Z,70.412938
2023-08-08T23:20:15.621Z,69.826060
2023-08-08T23:25:15.744Z,69.043530
2023-08-08T23:30:15.626Z,68.652254
2023-08-08T23:35:15.763Z,68.312322
2023-08-08T23:40:15.616Z,67.822473
2023-08-08T23:45:15.716Z,67.770580
2023-08-08T23:50:15.856Z,67.714096
2023-08-08T23:55:15.717Z,67.948317
